sensor_id;sensor_type;location;lat;lon;timestamp;pressure;altitude;pressure_sealevel;temperature;humidity
64402;BME280;50724;42.376;23.768;2023-04-26T00:02:27;92216.66;;;6.97;100.00
64402;BME280;50724;42.376;23.768;2023-04-26T00:05:28;92209.34;;;6.92;100.00
64402;BME280;50724;42.376;23.768;2023-04-26T00:08:29;92203.34;;;6.92;100.00
64402;BME280;50724;42.376;23.768;2023-04-26T00:11:29;92200.09;;;6.90;99.89
64402;BME280;50724;42.376;23.768;2023-04-26T00:14:29;92188.38;;;6.94;98.68
64402;BME280;50724;42.376;23.768;2023-04-26T00:17:30;92182.72;;;6.90;98.42
64402;BME280;50724;42.376;23.768;2023-04-26T00:20:31;92185.19;;;6.84;99.43
64402;BME280;50724;42.376;23.768;2023-04-26T00:23:31;92177.53;;;6.82;98.46
64402;BME280;50724;42.376;23.768;2023-04-26T00:26:31;92175.78;;;6.75;98.58
64402;BME280;50724;42.376;23.768;2023-04-26T00:29:33;92179.03;;;6.77;98.47
64402;BME280;50724;42.376;23.768;2023-04-26T00:32:34;92182.59;;;6.76;97.63
64402;BME280;50724;42.376;23.768;2023-04-26T00:35:34;92179.66;;;6.71;97.99
64402;BME280;50724;42.376;23.768;2023-04-26T00:38:37;92175.78;;;6.75;96.73
64402;BME280;50724;42.376;23.768;2023-04-26T00:41:37;92177.53;;;6.82;95.70
64402;BME280;50724;42.376;23.768;2023-04-26T00:44:37;92181.13;;;6.81;95.70
64402;BME280;50724;42.376;23.768;2023-04-26T00:47:39;92177.72;;;6.81;94.90
64402;BME280;50724;42.376;23.768;2023-04-26T00:50:40;92171.88;;;6.79;94.36
64402;BME280;50724;42.376;23.768;2023-04-26T00:53:41;92160.97;;;6.83;93.89
64402;BME280;50724;42.376;23.768;2023-04-26T00:56:42;92167.63;;;6.86;93.26
64402;BME280;50724;42.376;23.768;2023-04-26T00:59:42;92170.69;;;6.89;92.10
64402;BME280;50724;42.376;23.768;2023-04-26T01:02:43;92165.22;;;6.84;92.14
64402;BME280;50724;42.376;23.768;2023-04-26T01:05:44;92160.16;;;6.83;92.01
64402;BME280;50724;42.376;23.768;2023-04-26T01:08:44;92155.75;;;6.91;91.70
64402;BME280;50724;42.376;23.768;2023-04-26T01:11:45;92161.34;;;6.72;92.53
64402;BME280;50724;42.376;23.768;2023-04-26T01:14:46;92164.59;;;6.66;92.72
64402;BME280;50724;42.376;23.768;2023-04-26T01:17:46;92159.75;;;6.47;94.99
64402;BME280;50724;42.376;23.768;2023-04-26T01:20:47;92174.06;;;6.27;96.54
64402;BME280;50724;42.376;23.768;2023-04-26T01:23:49;92176.81;;;6.34;95.76
64402;BME280;50724;42.376;23.768;2023-04-26T01:26:49;92170.63;;;6.51;94.17
64402;BME280;50724;42.376;23.768;2023-04-26T01:29:50;92167.38;;;6.41;94.61
64402;BME280;50724;42.376;23.768;2023-04-26T01:32:50;92164.44;;;6.52;93.77
64402;BME280;50724;42.376;23.768;2023-04-26T01:35:51;92159.75;;;6.55;92.89
64402;BME280;50724;42.376;23.768;2023-04-26T01:38:51;92154.56;;;6.55;92.47
64402;BME280;50724;42.376;23.768;2023-04-26T01:41:52;92156.84;;;6.42;93.54
64402;BME280;50724;42.376;23.768;2023-04-26T01:44:52;92160.06;;;6.52;93.02
64402;BME280;50724;42.376;23.768;2023-04-26T01:47:53;92163.81;;;6.34;94.26
64402;BME280;50724;42.376;23.768;2023-04-26T01:50:53;92163.66;;;6.19;96.01
64402;BME280;50724;42.376;23.768;2023-04-26T01:53:54;92150.53;;;6.12;95.60
64402;BME280;50724;42.376;23.768;2023-04-26T01:56:54;92135.13;;;6.19;94.91
64402;BME280;50724;42.376;23.768;2023-04-26T01:59:54;92131.72;;;6.18;95.38
64402;BME280;50724;42.376;23.768;2023-04-26T02:02:56;92136.09;;;6.18;94.96
64402;BME280;50724;42.376;23.768;2023-04-26T02:05:56;92138.38;;;6.13;97.33
64402;BME280;50724;42.376;23.768;2023-04-26T02:08:57;92149.91;;;6.18;96.35
64402;BME280;50724;42.376;23.768;2023-04-26T02:11:57;92139.66;;;5.69;98.83
64402;BME280;50724;42.376;23.768;2023-04-26T02:14:58;92141.66;;;5.17;100.00
64402;BME280;50724;42.376;23.768;2023-04-26T02:18:07;92151.44;;;4.89;100.00
64402;BME280;50724;42.376;23.768;2023-04-26T02:21:10;92162.28;;;4.93;100.00
64402;BME280;50724;42.376;23.768;2023-04-26T02:24:11;92178.28;;;4.80;100.00
64402;BME280;50724;42.376;23.768;2023-04-26T02:27:11;92188.41;;;4.99;100.00
64402;BME280;50724;42.376;23.768;2023-04-26T02:30:12;92190.38;;;5.05;100.00
64402;BME280;50724;42.376;23.768;2023-04-26T02:33:12;92192.97;;;5.05;100.00
64402;BME280;50724;42.376;23.768;2023-04-26T02:36:13;92194.00;;;5.20;100.00
64402;BME280;50724;42.376;23.768;2023-04-26T02:39:13;92184.16;;;5.32;100.00
64402;BME280;50724;42.376;23.768;2023-04-26T02:42:13;92173.31;;;5.44;100.00
64402;BME280;50724;42.376;23.768;2023-04-26T02:45:14;92158.75;;;5.68;100.00
64402;BME280;50724;42.376;23.768;2023-04-26T02:48:14;92146.97;;;5.81;100.00
64402;BME280;50724;42.376;23.768;2023-04-26T02:51:15;92137.59;;;5.88;100.00
64402;BME280;50724;42.376;23.768;2023-04-26T02:54:15;92142.75;;;5.96;100.00
64402;BME280;50724;42.376;23.768;2023-04-26T02:57:26;92136.41;;;5.83;100.00
64402;BME280;50724;42.376;23.768;2023-04-26T03:00:26;92142.69;;;5.56;100.00
64402;BME280;50724;42.376;23.768;2023-04-26T03:03:27;92151.28;;;5.40;100.00
64402;BME280;50724;42.376;23.768;2023-04-26T03:06:28;92154.50;;;5.34;100.00
64402;BME280;50724;42.376;23.768;2023-04-26T03:09:29;92159.50;;;5.28;100.00
64402;BME280;50724;42.376;23.768;2023-04-26T03:12:30;92164.97;;;5.17;100.00
64402;BME280;50724;42.376;23.768;2023-04-26T03:15:30;92164.16;;;5.08;100.00
64402;BME280;50724;42.376;23.768;2023-04-26T03:18:30;92158.97;;;5.08;100.00
64402;BME280;50724;42.376;23.768;2023-04-26T03:21:31;92159.78;;;5.17;100.00
64402;BME280;50724;42.376;23.768;2023-04-26T03:24:31;92152.84;;;5.25;100.00
64402;BME280;50724;42.376;23.768;2023-04-26T03:27:32;92147.66;;;5.17;100.00
64402;BME280;50724;42.376;23.768;2023-04-26T03:30:32;92146.44;;;4.96;100.00
64402;BME280;50724;42.376;23.768;2023-04-26T03:33:33;92155.22;;;5.03;100.00
64402;BME280;50724;42.376;23.768;2023-04-26T03:36:33;92150.03;;;5.03;100.00
64402;BME280;50724;42.376;23.768;2023-04-26T03:39:34;92144.31;;;4.91;100.00
64402;BME280;50724;42.376;23.768;2023-04-26T03:42:36;92139.31;;;4.90;100.00
64402;BME280;50724;42.376;23.768;2023-04-26T03:45:36;92139.53;;;4.70;100.00
64402;BME280;50724;42.376;23.768;2023-04-26T03:48:45;92153.50;;;4.77;100.00
64402;BME280;50724;42.376;23.768;2023-04-26T03:51:54;92148.59;;;5.16;100.00
64402;BME280;50724;42.376;23.768;2023-04-26T03:54:55;92160.19;;;5.38;100.00
64402;BME280;50724;42.376;23.768;2023-04-26T03:57:55;92162.34;;;5.67;100.00
64402;BME280;50724;42.376;23.768;2023-04-26T04:00:56;92164.66;;;5.94;100.00
64402;BME280;50724;42.376;23.768;2023-04-26T04:03:57;92163.03;;;6.01;100.00
64402;BME280;50724;42.376;23.768;2023-04-26T04:06:58;92161.75;;;6.21;100.00
64402;BME280;50724;42.376;23.768;2023-04-26T04:09:59;92173.75;;;6.14;100.00
64402;BME280;50724;42.376;23.768;2023-04-26T04:12:59;92173.56;;;6.32;100.00
64402;BME280;50724;42.376;23.768;2023-04-26T04:16:00;92169.00;;;6.50;99.08
64402;BME280;50724;42.376;23.768;2023-04-26T04:19:00;92169.78;;;6.66;98.89
64402;BME280;50724;42.376;23.768;2023-04-26T04:22:01;92177.97;;;7.02;98.76
64402;BME280;50724;42.376;23.768;2023-04-26T04:25:01;92180.81;;;7.23;95.06
64402;BME280;50724;42.376;23.768;2023-04-26T04:28:03;92180.41;;;7.42;94.07
64402;BME280;50724;42.376;23.768;2023-04-26T04:31:04;92187.28;;;7.66;92.20
64402;BME280;50724;42.376;23.768;2023-04-26T04:34:05;92189.38;;;7.93;90.74
64402;BME280;50724;42.376;23.768;2023-04-26T04:37:05;92190.81;;;8.18;91.41
64402;BME280;50724;42.376;23.768;2023-04-26T04:40:06;92196.22;;;8.17;90.38
64402;BME280;50724;42.376;23.768;2023-04-26T04:43:09;92197.03;;;8.40;88.99
64402;BME280;50724;42.376;23.768;2023-04-26T04:46:11;92204.16;;;8.83;90.55
64402;BME280;50724;42.376;23.768;2023-04-26T04:49:12;92197.13;;;8.84;90.88
64402;BME280;50724;42.376;23.768;2023-04-26T04:52:12;92205.69;;;8.78;91.80
64402;BME280;50724;42.376;23.768;2023-04-26T04:55:13;92203.78;;;8.86;91.87
64402;BME280;50724;42.376;23.768;2023-04-26T04:58:13;92196.56;;;8.59;94.62
64402;BME280;50724;42.376;23.768;2023-04-26T05:01:14;92202.44;;;8.76;94.86
64402;BME280;50724;42.376;23.768;2023-04-26T05:04:14;92203.00;;;8.86;91.98
64402;BME280;50724;42.376;23.768;2023-04-26T05:07:15;92205.44;;;9.02;91.06
64402;BME280;50724;42.376;23.768;2023-04-26T05:10:17;92202.31;;;9.07;87.33
64402;BME280;50724;42.376;23.768;2023-04-26T05:13:18;92195.00;;;8.87;89.52
64402;BME280;50724;42.376;23.768;2023-04-26T05:16:18;92200.09;;;8.66;89.02
64402;BME280;50724;42.376;23.768;2023-04-26T05:19:18;92196.63;;;9.03;88.14
64402;BME280;50724;42.376;23.768;2023-04-26T05:22:19;92195.81;;;9.17;86.30
64402;BME280;50724;42.376;23.768;2023-04-26T05:25:21;92198.69;;;9.37;86.06
64402;BME280;50724;42.376;23.768;2023-04-26T05:28:22;92197.69;;;9.52;86.67
64402;BME280;50724;42.376;23.768;2023-04-26T05:31:22;92195.34;;;9.57;87.89
64402;BME280;50724;42.376;23.768;2023-04-26T05:34:23;92201.97;;;9.75;86.40
64402;BME280;50724;42.376;23.768;2023-04-26T05:37:24;92205.16;;;9.70;88.28
64402;BME280;50724;42.376;23.768;2023-04-26T05:40:25;92204.44;;;9.97;88.44
64402;BME280;50724;42.376;23.768;2023-04-26T05:43:25;92201.25;;;10.59;86.04
64402;BME280;50724;42.376;23.768;2023-04-26T05:46:26;92206.09;;;10.83;82.74
64402;BME280;50724;42.376;23.768;2023-04-26T05:49:26;92202.22;;;11.06;82.80
64402;BME280;50724;42.376;23.768;2023-04-26T05:52:27;92211.78;;;11.21;80.75
64402;BME280;50724;42.376;23.768;2023-04-26T05:55:35;92204.94;;;11.20;79.31
64402;BME280;50724;42.376;23.768;2023-04-26T05:58:36;92217.13;;;10.78;81.40
64402;BME280;50724;42.376;23.768;2023-04-26T06:01:36;92208.59;;;10.97;80.79
64402;BME280;50724;42.376;23.768;2023-04-26T06:04:37;92202.91;;;11.15;78.54
64402;BME280;50724;42.376;23.768;2023-04-26T06:07:37;92217.13;;;11.34;76.74
64402;BME280;50724;42.376;23.768;2023-04-26T06:10:39;92213.53;;;11.14;76.97
64402;BME280;50724;42.376;23.768;2023-04-26T06:13:39;92214.56;;;11.47;76.50
64402;BME280;50724;42.376;23.768;2023-04-26T06:16:40;92211.00;;;11.54;75.12
64402;BME280;50724;42.376;23.768;2023-04-26T06:19:40;92213.41;;;11.90;72.87
64402;BME280;50724;42.376;23.768;2023-04-26T06:22:41;92213.66;;;12.02;73.14
64402;BME280;50724;42.376;23.768;2023-04-26T06:25:41;92209.13;;;12.50;72.90
64402;BME280;50724;42.376;23.768;2023-04-26T06:28:44;92215.75;;;12.26;71.98
64402;BME280;50724;42.376;23.768;2023-04-26T06:31:45;92211.16;;;12.48;69.50
64402;BME280;50724;42.376;23.768;2023-04-26T06:34:45;92217.97;;;11.75;69.80
64402;BME280;50724;42.376;23.768;2023-04-26T06:37:46;92209.00;;;10.94;72.21
64402;BME280;50724;42.376;23.768;2023-04-26T06:40:47;92208.28;;;10.58;72.58
64402;BME280;50724;42.376;23.768;2023-04-26T06:43:47;92207.63;;;10.50;73.91
64402;BME280;50724;42.376;23.768;2023-04-26T06:46:48;92212.09;;;10.56;74.67
64402;BME280;50724;42.376;23.768;2023-04-26T06:49:51;92205.22;;;10.97;75.50
64402;BME280;50724;42.376;23.768;2023-04-26T06:52:52;92212.56;;;11.15;72.11
64402;BME280;50724;42.376;23.768;2023-04-26T06:55:52;92209.16;;;11.21;74.30
64402;BME280;50724;42.376;23.768;2023-04-26T06:59:01;92213.13;;;11.44;72.05
64402;BME280;50724;42.376;23.768;2023-04-26T07:02:01;92216.25;;;11.61;70.89
64402;BME280;50724;42.376;23.768;2023-04-26T07:05:02;92214.53;;;11.06;72.01
64402;BME280;50724;42.376;23.768;2023-04-26T07:08:03;92213.75;;;10.84;72.72
64402;BME280;50724;42.376;23.768;2023-04-26T07:11:09;92213.31;;;10.81;74.30
64402;BME280;50724;42.376;23.768;2023-04-26T07:14:09;92218.78;;;11.14;73.49
64402;BME280;50724;42.376;23.768;2023-04-26T07:17:11;92219.25;;;11.24;72.34
64402;BME280;50724;42.376;23.768;2023-04-26T07:20:11;92222.31;;;11.27;73.16
64402;BME280;50724;42.376;23.768;2023-04-26T07:23:14;92218.00;;;11.13;74.69
64402;BME280;50724;42.376;23.768;2023-04-26T07:26:15;92220.31;;;11.29;73.94
64402;BME280;50724;42.376;23.768;2023-04-26T07:29:15;92205.94;;;11.19;73.36
64402;BME280;50724;42.376;23.768;2023-04-26T07:32:17;92221.03;;;11.85;71.35
64402;BME280;50724;42.376;23.768;2023-04-26T07:35:18;92219.28;;;11.99;68.17
64402;BME280;50724;42.376;23.768;2023-04-26T07:38:19;92227.72;;;11.53;70.97
64402;BME280;50724;42.376;23.768;2023-04-26T07:41:20;92228.56;;;11.33;71.75
64402;BME280;50724;42.376;23.768;2023-04-26T07:44:20;92229.06;;;11.15;71.78
64402;BME280;50724;42.376;23.768;2023-04-26T07:47:21;92224.53;;;11.30;70.75
64402;BME280;50724;42.376;23.768;2023-04-26T07:50:23;92227.84;;;11.11;70.73
64402;BME280;50724;42.376;23.768;2023-04-26T07:53:23;92223.31;;;10.98;71.31
64402;BME280;50724;42.376;23.768;2023-04-26T07:56:24;92227.41;;;11.07;70.30
64402;BME280;50724;42.376;23.768;2023-04-26T07:59:25;92219.06;;;10.97;69.87
64402;BME280;50724;42.376;23.768;2023-04-26T08:02:25;92225.88;;;10.92;68.97
64402;BME280;50724;42.376;23.768;2023-04-26T08:05:26;92227.03;;;11.72;67.61
64402;BME280;50724;42.376;23.768;2023-04-26T08:08:27;92220.91;;;12.00;67.06
64402;BME280;50724;42.376;23.768;2023-04-26T08:11:27;92228.50;;;12.42;65.90
64402;BME280;50724;42.376;23.768;2023-04-26T08:14:28;92225.34;;;12.73;64.87
64402;BME280;50724;42.376;23.768;2023-04-26T08:17:30;92225.84;;;12.29;64.43
64402;BME280;50724;42.376;23.768;2023-04-26T08:20:31;92218.75;;;12.16;67.32
64402;BME280;50724;42.376;23.768;2023-04-26T08:23:33;92218.69;;;12.03;64.27
64402;BME280;50724;42.376;23.768;2023-04-26T08:26:35;92219.16;;;11.38;67.34
64402;BME280;50724;42.376;23.768;2023-04-26T08:29:35;92218.69;;;11.28;68.59
64402;BME280;50724;42.376;23.768;2023-04-26T08:32:36;92218.75;;;11.07;70.62
64402;BME280;50724;42.376;23.768;2023-04-26T08:35:36;92224.00;;;10.86;72.51
64402;BME280;50724;42.376;23.768;2023-04-26T08:38:37;92223.66;;;10.89;68.74
64402;BME280;50724;42.376;23.768;2023-04-26T08:41:49;92224.81;;;10.86;68.86
64402;BME280;50724;42.376;23.768;2023-04-26T08:44:52;92227.91;;;10.69;66.04
64402;BME280;50724;42.376;23.768;2023-04-26T08:48:02;92225.44;;;10.88;63.32
64402;BME280;50724;42.376;23.768;2023-04-26T08:51:06;92232.47;;;10.88;59.18
64402;BME280;50724;42.376;23.768;2023-04-26T08:54:06;92227.16;;;11.02;59.40
64402;BME280;50724;42.376;23.768;2023-04-26T08:57:08;92234.88;;;11.11;56.26
64402;BME280;50724;42.376;23.768;2023-04-26T09:00:09;92226.56;;;11.00;53.93
64402;BME280;50724;42.376;23.768;2023-04-26T09:03:22;92233.34;;;10.95;54.16
64402;BME280;50724;42.376;23.768;2023-04-26T09:06:25;92230.53;;;11.24;57.05
64402;BME280;50724;42.376;23.768;2023-04-26T09:09:32;92230.59;;;11.31;54.83
64402;BME280;50724;42.376;23.768;2023-04-26T09:12:34;92228.06;;;11.16;64.71
64402;BME280;50724;42.376;23.768;2023-04-26T09:15:34;92239.91;;;11.12;67.15
64402;BME280;50724;42.376;23.768;2023-04-26T09:18:46;92241.59;;;11.20;67.00
64402;BME280;50724;42.376;23.768;2023-04-26T09:21:49;92240.44;;;11.29;65.22
64402;BME280;50724;42.376;23.768;2023-04-26T09:24:50;92242.44;;;11.61;62.31
64402;BME280;50724;42.376;23.768;2023-04-26T09:27:53;92251.34;;;11.66;62.46
64402;BME280;50724;42.376;23.768;2023-04-26T09:30:53;92251.41;;;11.73;61.68
64402;BME280;50724;42.376;23.768;2023-04-26T09:33:58;92245.38;;;11.45;61.55
64402;BME280;50724;42.376;23.768;2023-04-26T09:36:59;92253.16;;;11.66;64.16
64402;BME280;50724;42.376;23.768;2023-04-26T09:39:59;92252.75;;;11.97;61.54
64402;BME280;50724;42.376;23.768;2023-04-26T09:43:05;92251.66;;;11.78;61.19
64402;BME280;50724;42.376;23.768;2023-04-26T09:46:06;92249.91;;;11.57;62.54
64402;BME280;50724;42.376;23.768;2023-04-26T09:49:06;92248.38;;;11.42;61.09
64402;BME280;50724;42.376;23.768;2023-04-26T09:52:07;92266.84;;;11.61;63.12
64402;BME280;50724;42.376;23.768;2023-04-26T09:55:08;92258.72;;;11.22;63.06
64402;BME280;50724;42.376;23.768;2023-04-26T09:58:09;92264.75;;;10.74;63.96
64402;BME280;50724;42.376;23.768;2023-04-26T10:01:10;92265.88;;;11.14;65.27
64402;BME280;50724;42.376;23.768;2023-04-26T10:04:13;92265.00;;;11.28;65.20
64402;BME280;50724;42.376;23.768;2023-04-26T10:07:15;92253.09;;;11.53;63.24
64402;BME280;50724;42.376;23.768;2023-04-26T10:10:16;92255.78;;;11.66;62.97
64402;BME280;50724;42.376;23.768;2023-04-26T10:13:18;92251.06;;;11.83;61.40
64402;BME280;50724;42.376;23.768;2023-04-26T10:16:20;92251.00;;;11.42;62.55
64402;BME280;50724;42.376;23.768;2023-04-26T10:19:20;92247.06;;;11.59;63.12
64402;BME280;50724;42.376;23.768;2023-04-26T10:22:31;92241.03;;;11.93;61.56
64402;BME280;50724;42.376;23.768;2023-04-26T10:25:37;92240.06;;;11.66;63.60
64402;BME280;50724;42.376;23.768;2023-04-26T10:35:11;92232.66;;;12.17;62.04
64402;BME280;50724;42.376;23.768;2023-04-26T10:38:12;92233.47;;;12.24;58.54
64402;BME280;50724;42.376;23.768;2023-04-26T10:44:41;92228.34;;;11.96;62.35
64402;BME280;50724;42.376;23.768;2023-04-26T10:47:41;92229.13;;;11.90;60.85
64402;BME280;50724;42.376;23.768;2023-04-26T10:54:00;92237.81;;;11.63;62.04
64402;BME280;50724;42.376;23.768;2023-04-26T10:57:01;92231.94;;;11.54;61.91
64402;BME280;50724;42.376;23.768;2023-04-26T11:03:21;92243.09;;;11.07;64.19
64402;BME280;50724;42.376;23.768;2023-04-26T11:06:23;92237.75;;;11.16;61.92
64402;BME280;50724;42.376;23.768;2023-04-26T11:09:34;92235.97;;;10.95;62.01
64402;BME280;50724;42.376;23.768;2023-04-26T11:12:41;92238.66;;;11.01;63.67
64402;BME280;50724;42.376;23.768;2023-04-26T11:15:41;92235.88;;;11.10;62.86
64402;BME280;50724;42.376;23.768;2023-04-26T11:18:44;92239.47;;;11.30;62.43
64402;BME280;50724;42.376;23.768;2023-04-26T11:21:45;92243.81;;;11.50;62.64
64402;BME280;50724;42.376;23.768;2023-04-26T11:24:45;92242.84;;;11.30;62.07
64402;BME280;50724;42.376;23.768;2023-04-26T11:27:45;92241.25;;;11.01;63.53
64402;BME280;50724;42.376;23.768;2023-04-26T11:30:47;92235.63;;;11.04;64.79
64402;BME280;50724;42.376;23.768;2023-04-26T11:33:49;92235.25;;;11.07;63.54
64402;BME280;50724;42.376;23.768;2023-04-26T11:36:50;92239.88;;;11.05;63.73
64402;BME280;50724;42.376;23.768;2023-04-26T11:39:50;92236.44;;;11.05;64.38
64402;BME280;50724;42.376;23.768;2023-04-26T11:43:01;92236.88;;;11.09;62.26
64402;BME280;50724;42.376;23.768;2023-04-26T11:46:02;92241.44;;;11.00;61.13
64402;BME280;50724;42.376;23.768;2023-04-26T11:49:06;92233.75;;;10.92;62.42
64402;BME280;50724;42.376;23.768;2023-04-26T11:52:07;92245.19;;;10.91;62.03
64402;BME280;50724;42.376;23.768;2023-04-26T11:55:08;92242.47;;;10.78;62.65
64402;BME280;50724;42.376;23.768;2023-04-26T11:58:12;92241.00;;;10.69;65.47
64402;BME280;50724;42.376;23.768;2023-04-26T12:01:39;92243.72;;;10.82;66.39
64402;BME280;50724;42.376;23.768;2023-04-26T12:04:57;92244.53;;;10.82;65.45
64402;BME280;50724;42.376;23.768;2023-04-26T12:07:59;92236.13;;;10.66;65.29
64402;BME280;50724;42.376;23.768;2023-04-26T12:11:01;92244.69;;;10.81;64.46
64402;BME280;50724;42.376;23.768;2023-04-26T12:14:02;92237.19;;;10.71;63.79
64402;BME280;50724;42.376;23.768;2023-04-26T12:17:04;92233.16;;;10.96;63.57
64402;BME280;50724;42.376;23.768;2023-04-26T12:20:09;92232.34;;;10.96;64.27
64402;BME280;50724;42.376;23.768;2023-04-26T12:23:15;92225.16;;;11.04;64.99
64402;BME280;50724;42.376;23.768;2023-04-26T12:26:16;92225.84;;;11.13;62.06
64402;BME280;50724;42.376;23.768;2023-04-26T12:29:17;92231.25;;;11.39;62.81
64402;BME280;50724;42.376;23.768;2023-04-26T12:32:17;92229.28;;;11.48;60.04
64402;BME280;50724;42.376;23.768;2023-04-26T12:35:18;92227.25;;;11.78;60.68
64402;BME280;50724;42.376;23.768;2023-04-26T12:38:21;92234.97;;;11.86;60.31
64402;BME280;50724;42.376;23.768;2023-04-26T12:41:22;92236.59;;;11.59;59.86
64402;BME280;50724;42.376;23.768;2023-04-26T12:44:22;92229.88;;;11.43;60.69
64402;BME280;50724;42.376;23.768;2023-04-26T12:47:23;92236.94;;;11.49;60.33
64402;BME280;50724;42.376;23.768;2023-04-26T12:50:23;92231.81;;;11.07;61.17
64402;BME280;50724;42.376;23.768;2023-04-26T12:53:24;92231.09;;;11.13;63.92
64402;BME280;50724;42.376;23.768;2023-04-26T12:56:24;92235.06;;;11.09;66.42
64402;BME280;50724;42.376;23.768;2023-04-26T12:59:25;92257.41;;;10.63;70.61
64402;BME280;50724;42.376;23.768;2023-04-26T13:02:25;92246.53;;;10.59;71.22
64402;BME280;50724;42.376;23.768;2023-04-26T13:05:26;92252.72;;;10.37;73.67
64402;BME280;50724;42.376;23.768;2023-04-26T13:08:28;92248.84;;;10.48;74.04
64402;BME280;50724;42.376;23.768;2023-04-26T13:11:29;92260.00;;;10.06;74.24
64402;BME280;50724;42.376;23.768;2023-04-26T13:14:29;92253.38;;;9.89;74.72
64402;BME280;50724;42.376;23.768;2023-04-26T13:17:30;92263.47;;;9.77;75.96
64402;BME280;50724;42.376;23.768;2023-04-26T13:20:30;92261.38;;;9.87;78.13
64402;BME280;50724;42.376;23.768;2023-04-26T13:23:31;92260.44;;;10.09;75.43
64402;BME280;50724;42.376;23.768;2023-04-26T13:26:31;92264.91;;;10.30;73.43
64402;BME280;50724;42.376;23.768;2023-04-26T13:29:32;92273.72;;;10.44;75.54
64402;BME280;50724;42.376;23.768;2023-04-26T13:32:32;92267.78;;;10.35;75.81
64402;BME280;50724;42.376;23.768;2023-04-26T13:35:33;92267.50;;;10.87;75.47
64402;BME280;50724;42.376;23.768;2023-04-26T13:38:34;92270.06;;;10.80;73.55
64402;BME280;50724;42.376;23.768;2023-04-26T13:41:34;92274.41;;;10.52;73.82
64402;BME280;50724;42.376;23.768;2023-04-26T13:44:35;92274.72;;;10.43;75.21
64402;BME280;50724;42.376;23.768;2023-04-26T13:47:35;92267.50;;;10.45;75.66
64402;BME280;50724;42.376;23.768;2023-04-26T13:50:36;92269.66;;;10.05;73.50
64402;BME280;50724;42.376;23.768;2023-04-26T13:53:36;92268.59;;;9.85;75.57
64402;BME280;50724;42.376;23.768;2023-04-26T13:56:37;92273.66;;;9.87;76.07
64402;BME280;50724;42.376;23.768;2023-04-26T13:59:46;92280.66;;;9.72;74.78
64402;BME280;50724;42.376;23.768;2023-04-26T14:02:48;92277.97;;;9.36;76.60
64402;BME280;50724;42.376;23.768;2023-04-26T14:05:48;92285.41;;;9.24;79.03
64402;BME280;50724;42.376;23.768;2023-04-26T14:08:48;92288.66;;;9.41;80.60
64402;BME280;50724;42.376;23.768;2023-04-26T14:11:49;92287.44;;;9.51;79.50
64402;BME280;50724;42.376;23.768;2023-04-26T14:14:49;92287.97;;;9.47;79.69
64402;BME280;50724;42.376;23.768;2023-04-26T14:17:50;92286.97;;;9.48;78.70
64402;BME280;50724;42.376;23.768;2023-04-26T14:20:56;92292.00;;;9.64;77.53
64402;BME280;50724;42.376;23.768;2023-04-26T14:23:57;92292.63;;;9.66;77.54
64402;BME280;50724;42.376;23.768;2023-04-26T14:27:00;92295.72;;;9.69;77.17
64402;BME280;50724;42.376;23.768;2023-04-26T14:30:00;92297.59;;;9.61;77.65
64402;BME280;50724;42.376;23.768;2023-04-26T14:33:01;92299.56;;;9.59;77.88
64402;BME280;50724;42.376;23.768;2023-04-26T14:36:01;92306.50;;;9.52;77.11
64402;BME280;50724;42.376;23.768;2023-04-26T14:39:02;92309.38;;;9.42;78.17
64402;BME280;50724;42.376;23.768;2023-04-26T14:42:02;92320.88;;;9.33;78.89
64402;BME280;50724;42.376;23.768;2023-04-26T14:45:03;92319.00;;;9.27;79.83
64402;BME280;50724;42.376;23.768;2023-04-26T14:48:04;92324.97;;;9.13;81.65
64402;BME280;50724;42.376;23.768;2023-04-26T14:51:05;92343.72;;;8.94;83.21
64402;BME280;50724;42.376;23.768;2023-04-26T14:54:05;92344.03;;;8.76;84.18
64402;BME280;50724;42.376;23.768;2023-04-26T14:57:06;92350.84;;;8.77;86.61
64402;BME280;50724;42.376;23.768;2023-04-26T15:00:07;92353.75;;;8.82;88.11
64402;BME280;50724;42.376;23.768;2023-04-26T15:03:08;92355.19;;;8.85;90.18
64402;BME280;50724;42.376;23.768;2023-04-26T15:06:08;92358.00;;;8.83;91.81
64402;BME280;50724;42.376;23.768;2023-04-26T15:09:09;92352.19;;;8.73;91.03
64402;BME280;50724;42.376;23.768;2023-04-26T15:12:10;92359.38;;;8.71;92.28
64402;BME280;50724;42.376;23.768;2023-04-26T15:15:11;92364.47;;;8.65;91.86
64402;BME280;50724;42.376;23.768;2023-04-26T15:18:11;92368.34;;;8.69;92.55
64402;BME280;50724;42.376;23.768;2023-04-26T15:21:15;92371.69;;;8.55;94.83
64402;BME280;50724;42.376;23.768;2023-04-26T15:24:16;92375.88;;;8.64;95.97
64402;BME280;50724;42.376;23.768;2023-04-26T15:27:17;92377.34;;;8.58;100.00
64402;BME280;50724;42.376;23.768;2023-04-26T15:30:17;92383.19;;;8.38;98.49
64402;BME280;50724;42.376;23.768;2023-04-26T15:33:18;92383.88;;;8.32;97.61
64402;BME280;50724;42.376;23.768;2023-04-26T15:36:18;92381.91;;;8.34;97.84
64402;BME280;50724;42.376;23.768;2023-04-26T15:39:19;92384.34;;;8.35;98.01
64402;BME280;50724;42.376;23.768;2023-04-26T15:42:20;92382.78;;;8.18;98.38
64402;BME280;50724;42.376;23.768;2023-04-26T15:45:21;92385.72;;;8.15;99.61
64402;BME280;50724;42.376;23.768;2023-04-26T15:48:22;92388.63;;;8.12;100.00
64402;BME280;50724;42.376;23.768;2023-04-26T15:51:23;92393.72;;;8.05;99.84
64402;BME280;50724;42.376;23.768;2023-04-26T15:54:23;92391.44;;;8.02;97.62
64402;BME280;50724;42.376;23.768;2023-04-26T15:57:25;92400.75;;;7.97;97.39
64402;BME280;50724;42.376;23.768;2023-04-26T16:00:26;92398.84;;;7.75;99.79
64402;BME280;50724;42.376;23.768;2023-04-26T16:03:27;92398.84;;;7.75;100.00
64402;BME280;50724;42.376;23.768;2023-04-26T16:06:27;92400.81;;;7.64;100.00
64402;BME280;50724;42.376;23.768;2023-04-26T16:09:28;92396.38;;;7.81;99.63